createdAt,value
2023-04-12T00:10:54.965Z,0
2023-04-12T00:26:18.259Z,0
2023-04-12T00:41:41.568Z,0
2023-04-12T00:57:04.883Z,0
2023-04-12T01:12:28.198Z,0
2023-04-12T01:27:51.487Z,0
2023-04-12T01:43:14.805Z,0
2023-04-12T01:58:38.113Z,0
2023-04-12T02:14:01.423Z,0
2023-04-12T02:29:24.736Z,0
2023-04-12T02:44:47.057Z,0
2023-04-12T03:00:10.363Z,0
2023-04-12T03:15:33.663Z,0
2023-04-12T03:30:56.987Z,0
2023-04-12T03:46:20.291Z,0
2023-04-12T04:01:43.551Z,3
2023-04-12T04:17:06.821Z,21
2023-04-12T04:32:30.083Z,94
2023-04-12T04:47:53.350Z,272
2023-04-12T05:03:16.616Z,409
2023-04-12T05:18:39.876Z,518
2023-04-12T05:34:03.155Z,708
2023-04-12T05:49:26.412Z,870
2023-04-12T06:04:48.687Z,1085
2023-04-12T06:20:11.939Z,1283
2023-04-12T06:35:35.205Z,1429
2023-04-12T06:50:58.466Z,1442
2023-04-12T07:06:21.732Z,1509
2023-04-12T07:21:45.007Z,1615
2023-04-12T07:37:08.268Z,1735
2023-04-12T07:52:31.523Z,1805
2023-04-12T08:07:54.767Z,1955
2023-04-12T08:23:18.032Z,3276
2023-04-12T08:38:41.294Z,3493
2023-04-12T08:54:04.528Z,2933
2023-04-12T09:09:27.789Z,3146
2023-04-12T09:24:50.059Z,4194
2023-04-12T09:26:13.480Z,3992
2023-04-12T09:27:36.882Z,3864
2023-04-12T09:29:00.299Z,3782
2023-04-12T09:30:23.701Z,3591
2023-04-12T09:31:47.107Z,3306
2023-04-12T09:33:10.525Z,3248
2023-04-12T09:34:33.916Z,3292
2023-04-12T09:35:57.337Z,3540
2023-04-12T09:37:20.743Z,3545
2023-04-12T09:38:44.148Z,3697
2023-04-12T09:40:07.563Z,3508
2023-04-12T09:42:54.377Z,3072
2023-04-12T09:44:16.813Z,3564
2023-04-12T09:45:40.214Z,3687
2023-04-12T09:47:03.630Z,3551
2023-04-12T09:48:27.031Z,3703
2023-04-12T09:49:50.435Z,3828
2023-04-12T09:51:13.859Z,4006
2023-04-12T09:52:37.265Z,4125
2023-04-12T09:54:00.671Z,4256
2023-04-12T09:55:24.076Z,4382
2023-04-12T09:56:47.483Z,4490
2023-04-12T09:58:10.888Z,4485
2023-04-12T09:59:34.289Z,4588
2023-04-12T10:00:57.698Z,4585
2023-04-12T10:02:20.128Z,4615
2023-04-12T10:03:43.545Z,4696
2023-04-12T10:05:06.953Z,4763
2023-04-12T10:06:30.362Z,4956
2023-04-12T10:12:04.000Z,6259
2023-04-12T10:21:46.867Z,6726
2023-04-12T10:23:09.313Z,7437
2023-04-12T10:24:31.725Z,7737
2023-04-12T10:25:54.176Z,7696
2023-04-12T10:27:16.603Z,3072
2023-04-12T10:28:40.013Z,7244
2023-04-12T10:30:03.410Z,6757
2023-04-12T10:31:26.829Z,6497
2023-04-12T10:34:13.642Z,6364
2023-04-12T10:35:37.058Z,6604
2023-04-12T10:37:00.477Z,6907
2023-04-12T10:38:23.872Z,6926
2023-04-12T10:39:47.271Z,7172
2023-04-12T10:41:10.687Z,8026
2023-04-12T10:42:34.102Z,3072
2023-04-12T10:43:57.511Z,7060
2023-04-12T10:45:19.942Z,3072
2023-04-12T10:46:43.346Z,4909
2023-04-12T10:48:06.739Z,4964
2023-04-12T10:49:30.151Z,5280
2023-04-12T10:50:53.560Z,5799
2023-04-12T10:52:16.972Z,5877
2023-04-12T10:53:40.388Z,5819
2023-04-12T10:55:03.782Z,6356
2023-04-12T10:56:26.226Z,5920
2023-04-12T10:57:48.653Z,3072
2023-04-12T10:59:12.053Z,5462
2023-04-12T11:00:35.465Z,4847
2023-04-12T11:01:58.877Z,4787
2023-04-12T11:03:22.278Z,4354
2023-04-12T11:04:45.699Z,3072
2023-04-12T11:06:09.106Z,3998
2023-04-12T11:07:32.517Z,3803
2023-04-12T11:08:55.921Z,3072
2023-04-12T11:10:19.323Z,3561
2023-04-12T11:11:41.766Z,3433
2023-04-12T11:13:04.177Z,3370
2023-04-12T11:14:26.625Z,3311
2023-04-12T11:15:49.037Z,3173
2023-04-12T11:17:11.475Z,3087
2023-04-12T11:18:33.901Z,3064
2023-04-12T11:19:57.312Z,3036
2023-04-12T11:21:20.717Z,3089
2023-04-12T11:22:44.129Z,3150
2023-04-12T11:24:07.539Z,3177
2023-04-12T11:25:30.943Z,3156
2023-04-12T11:26:54.362Z,3146
2023-04-12T11:28:17.764Z,3230
2023-04-12T11:29:41.166Z,3370
2023-04-12T11:31:04.597Z,3565
2023-04-12T11:32:27.997Z,3742
2023-04-12T11:33:51.407Z,3897
2023-04-12T11:35:14.817Z,4006
2023-04-12T11:36:37.236Z,4346
2023-04-12T11:38:00.640Z,4860
2023-04-12T11:39:24.055Z,5230
2023-04-12T11:40:47.462Z,3072
2023-04-12T11:42:10.873Z,4311
2023-04-12T11:43:34.278Z,4905
2023-04-12T11:44:57.696Z,3072
2023-04-12T11:46:20.116Z,4178
2023-04-12T11:47:42.535Z,4422
2023-04-12T11:49:05.950Z,3072
2023-04-12T11:50:29.352Z,4054
2023-04-12T11:51:52.767Z,3931
2023-04-12T11:53:16.168Z,3566
2023-04-12T11:54:39.590Z,3072
2023-04-12T11:56:02.988Z,3163
2023-04-12T11:57:26.388Z,3423
2023-04-12T11:58:49.796Z,2988
2023-04-12T12:00:13.212Z,2866
2023-04-12T12:01:36.618Z,2854
2023-04-12T12:03:00.024Z,2649
2023-04-12T12:04:23.435Z,2187
2023-04-12T12:05:45.857Z,2019
2023-04-12T12:07:09.261Z,1874
2023-04-12T12:08:32.679Z,1764
2023-04-12T12:09:56.094Z,1692
2023-04-12T12:11:19.492Z,1645
2023-04-12T12:12:42.893Z,1585
2023-04-12T12:14:06.314Z,1565
2023-04-12T12:15:28.748Z,1550
2023-04-12T12:16:51.187Z,1520
2023-04-12T12:18:13.607Z,1550
2023-04-12T12:19:36.030Z,1588
2023-04-12T12:20:59.452Z,1696
2023-04-12T12:22:22.845Z,1745
2023-04-12T12:23:46.250Z,1793
2023-04-12T12:25:09.679Z,1815
2023-04-12T12:26:33.082Z,1745
2023-04-12T12:27:56.488Z,1582
2023-04-12T12:29:19.893Z,1478
2023-04-12T12:30:43.321Z,1425
2023-04-12T12:32:06.720Z,1381
2023-04-12T12:33:30.120Z,1318
2023-04-12T12:34:53.534Z,1330
2023-04-12T12:36:16.940Z,1371
2023-04-12T12:37:39.374Z,1425
2023-04-12T12:39:02.781Z,1510
2023-04-12T12:40:26.175Z,1560
2023-04-12T12:41:49.589Z,1581
2023-04-12T12:43:12.995Z,1655
2023-04-12T12:44:36.396Z,1714
2023-04-12T12:45:59.821Z,1863
2023-04-12T12:47:22.243Z,2006
2023-04-12T12:48:44.681Z,3072
2023-04-12T12:50:07.114Z,2444
2023-04-12T12:51:29.533Z,2720
2023-04-12T12:52:52.948Z,2802
2023-04-12T12:54:16.353Z,2719
2023-04-12T12:55:39.770Z,2466
2023-04-12T12:57:03.164Z,2246
2023-04-12T12:58:26.574Z,2070
2023-04-12T12:59:49.978Z,1794
2023-04-12T13:01:13.392Z,1597
2023-04-12T13:02:36.799Z,1583
2023-04-12T13:04:00.197Z,1640
2023-04-12T13:05:23.622Z,1728
2023-04-12T13:06:47.024Z,1842
2023-04-12T13:08:10.435Z,2029
2023-04-12T13:09:32.863Z,2085
2023-04-12T13:10:56.271Z,2181
2023-04-12T13:12:19.676Z,2415
2023-04-12T13:13:43.070Z,2425
2023-04-12T13:15:06.478Z,2370
2023-04-12T13:16:29.893Z,2287
2023-04-12T13:17:53.303Z,2151
2023-04-12T13:19:15.741Z,1985
2023-04-12T13:20:38.166Z,1835
2023-04-12T13:22:01.577Z,1681
2023-04-12T13:23:24.979Z,1606
2023-04-12T13:24:48.388Z,1599
2023-04-12T13:26:11.791Z,1591
2023-04-12T13:27:35.205Z,1493
2023-04-12T13:28:58.600Z,1316
2023-04-12T13:30:22.022Z,1126
2023-04-12T13:31:45.421Z,979
2023-04-12T13:33:08.845Z,995
2023-04-12T13:34:32.251Z,1183
2023-04-12T13:35:55.656Z,1394
2023-04-12T13:37:19.059Z,1650
2023-04-12T13:38:41.484Z,1923
2023-04-12T13:40:04.897Z,2111
2023-04-12T13:41:28.302Z,2126
2023-04-12T13:42:51.715Z,2005
2023-04-12T13:44:15.117Z,1851
2023-04-12T13:45:38.519Z,1762
2023-04-12T13:47:01.924Z,1688
2023-04-12T13:48:24.361Z,1582
2023-04-12T13:49:46.799Z,1477
2023-04-12T13:51:10.187Z,1378
2023-04-12T13:52:33.611Z,1282
2023-04-12T13:53:57.007Z,1207
2023-04-12T13:55:20.417Z,1188
2023-04-12T13:56:43.843Z,1205
2023-04-12T13:58:07.241Z,1204
2023-04-12T13:59:30.646Z,1137
2023-04-12T14:00:54.000Z,1091
2023-04-12T14:02:17.471Z,1075
2023-04-12T14:03:40.891Z,1052
2023-04-12T14:05:04.286Z,1050
2023-04-12T14:06:27.709Z,1047
2023-04-12T14:07:50.122Z,1056
2023-04-12T14:09:13.532Z,1040
2023-04-12T14:10:36.950Z,1035
2023-04-12T14:12:00.349Z,1075
2023-04-12T14:13:23.768Z,1104
2023-04-12T14:14:47.172Z,1093
2023-04-12T14:16:10.574Z,1057
2023-04-12T14:17:33.020Z,1129
2023-04-12T14:18:55.432Z,1294
2023-04-12T14:20:17.884Z,1435
2023-04-12T14:21:40.307Z,1605
2023-04-12T14:23:02.747Z,1655
2023-04-12T14:24:25.164Z,1486
2023-04-12T14:25:47.607Z,1296
2023-04-12T14:27:10.019Z,1138
2023-04-12T14:28:32.457Z,999
2023-04-12T14:29:54.888Z,953
2023-04-12T14:31:18.300Z,3072
2023-04-12T14:32:41.699Z,1031
2023-04-12T14:34:05.111Z,1121
2023-04-12T14:35:28.515Z,1224
2023-04-12T14:36:51.933Z,1331
2023-04-12T14:38:15.333Z,1423
2023-04-12T14:39:38.748Z,1547
2023-04-12T14:41:02.154Z,1653
2023-04-12T14:42:25.560Z,1775
2023-04-12T14:43:48.977Z,1889
2023-04-12T14:45:12.378Z,1899
2023-04-12T14:46:35.802Z,1851
2023-04-12T14:47:58.219Z,1888
2023-04-12T14:49:21.627Z,1877
2023-04-12T14:50:45.019Z,1550
2023-04-12T14:52:08.446Z,1119
2023-04-12T14:53:31.848Z,868
2023-04-12T14:54:55.256Z,730
2023-04-12T14:56:18.666Z,685
2023-04-12T14:57:41.088Z,718
2023-04-12T14:59:03.535Z,3072
2023-04-12T15:00:26.931Z,748
2023-04-12T15:01:50.342Z,815
2023-04-12T15:03:13.751Z,865
2023-04-12T15:04:37.158Z,798
2023-04-12T15:05:59.593Z,697
2023-04-12T15:07:23.000Z,3072
2023-04-12T15:08:46.412Z,723
2023-04-12T15:10:09.820Z,744
2023-04-12T15:11:33.224Z,702
2023-04-12T15:12:56.644Z,3072
2023-04-12T15:14:20.039Z,921
2023-04-12T15:15:43.461Z,1343
2023-04-12T15:17:06.866Z,1565
2023-04-12T15:18:30.274Z,1499
2023-04-12T15:19:53.684Z,1446
2023-04-12T15:21:17.084Z,3072
2023-04-12T15:22:40.496Z,1235
2023-04-12T15:24:02.911Z,1109
2023-04-12T15:25:26.332Z,1048
2023-04-12T15:26:48.766Z,989
2023-04-12T15:28:11.180Z,899
2023-04-12T15:29:34.598Z,848
2023-04-12T15:30:58.000Z,871
2023-04-12T15:32:21.417Z,891
2023-04-12T15:33:44.824Z,847
2023-04-12T15:35:08.223Z,779
2023-04-12T15:36:31.647Z,753
2023-04-12T15:37:55.049Z,766
2023-04-12T15:39:18.464Z,760
2023-04-12T15:40:41.882Z,752
2023-04-12T15:42:05.289Z,694
2023-04-12T15:43:28.695Z,3072
2023-04-12T15:44:52.091Z,600
2023-04-12T15:46:14.514Z,617
2023-04-12T15:47:37.932Z,625
2023-04-12T15:49:01.347Z,601
2023-04-12T15:50:24.750Z,534
2023-04-12T15:51:48.156Z,470
2023-04-12T15:53:11.568Z,440
2023-04-12T15:54:34.977Z,426
2023-04-12T15:55:57.415Z,3072
2023-04-12T15:57:19.849Z,398
2023-04-12T15:58:42.287Z,412
2023-04-12T16:00:04.704Z,454
2023-04-12T16:01:28.124Z,475
2023-04-12T16:02:51.527Z,472
2023-04-12T16:04:14.940Z,499
2023-04-12T16:07:01.762Z,588
2023-04-12T16:08:25.155Z,674
2023-04-12T16:09:48.576Z,773
2023-04-12T16:11:11.982Z,893
2023-04-12T16:12:35.407Z,1064
2023-04-12T16:13:58.797Z,1265
2023-04-12T16:15:22.210Z,1409
2023-04-12T16:16:45.628Z,1463
2023-04-12T16:18:08.045Z,1452
2023-04-12T16:19:31.462Z,1394
2023-04-12T16:20:54.866Z,1267
2023-04-12T16:22:18.279Z,1145
2023-04-12T16:23:41.692Z,1068
2023-04-12T16:25:05.106Z,1108
2023-04-12T16:26:28.505Z,1301
2023-04-12T16:27:51.912Z,1577
2023-04-12T16:29:14.336Z,1700
2023-04-12T16:30:36.770Z,1669
2023-04-12T16:31:59.195Z,1578
2023-04-12T16:33:21.633Z,1485
2023-04-12T16:34:44.059Z,1373
2023-04-12T16:36:06.489Z,1238
2023-04-12T16:37:28.929Z,1119
2023-04-12T16:38:51.344Z,1019
2023-04-12T16:40:14.766Z,3072
2023-04-12T16:41:38.157Z,973
2023-04-12T16:43:01.568Z,827
2023-04-12T16:44:24.991Z,712
2023-04-12T16:45:48.385Z,653
2023-04-12T16:47:11.810Z,611
2023-04-12T16:48:35.222Z,525
2023-04-12T16:49:58.629Z,427
2023-04-12T16:51:22.035Z,340
2023-04-12T16:52:45.441Z,294
2023-04-12T16:54:08.842Z,259
2023-04-12T16:55:32.253Z,226
2023-04-12T16:56:54.667Z,208
2023-04-12T16:58:18.086Z,206
2023-04-12T16:59:41.496Z,204
2023-04-12T17:01:04.897Z,213
2023-04-12T17:02:28.315Z,203
2023-04-12T17:03:51.721Z,207
2023-04-12T17:05:15.132Z,202
2023-04-12T17:06:37.567Z,188
2023-04-12T17:07:59.996Z,161
2023-04-12T17:09:23.398Z,126
2023-04-12T17:10:46.802Z,130
2023-04-12T17:12:10.222Z,133
2023-04-12T17:13:33.627Z,119
2023-04-12T17:14:57.039Z,115
2023-04-12T17:16:20.435Z,114
2023-04-12T17:17:43.844Z,122
2023-04-12T17:19:07.252Z,120
2023-04-12T17:20:30.669Z,120
2023-04-12T17:21:54.089Z,125
2023-04-12T17:23:17.493Z,125
2023-04-12T17:24:40.890Z,129
2023-04-12T17:26:03.331Z,132
2023-04-12T17:27:26.726Z,140
2023-04-12T17:28:50.143Z,139
2023-04-12T17:30:13.554Z,134
2023-04-12T17:31:36.967Z,132
2023-04-12T17:33:00.383Z,131
2023-04-12T17:34:23.784Z,131
2023-04-12T17:35:46.225Z,110
2023-04-12T17:37:08.630Z,96
2023-04-12T17:38:32.039Z,88
2023-04-12T17:39:55.458Z,84
2023-04-12T17:41:18.869Z,85
2023-04-12T17:42:42.262Z,91
2023-04-12T17:44:05.671Z,97
2023-04-12T17:45:29.075Z,96
2023-04-12T17:46:52.490Z,88
2023-04-12T17:48:15.892Z,83
2023-04-12T17:49:39.304Z,83
2023-04-12T17:51:02.720Z,81
2023-04-12T17:52:26.110Z,84
2023-04-12T17:53:49.539Z,72
2023-04-12T17:55:11.945Z,60
2023-04-12T17:56:35.354Z,49
2023-04-12T17:57:58.759Z,50
2023-04-12T17:59:22.182Z,40
2023-04-12T18:00:45.574Z,38
2023-04-12T18:02:08.987Z,34
2023-04-12T18:03:32.406Z,23
2023-04-12T18:04:54.839Z,24
2023-04-12T18:06:17.266Z,18
2023-04-12T18:07:40.661Z,13
2023-04-12T18:09:04.077Z,11
2023-04-12T18:10:27.471Z,10
2023-04-12T18:11:50.888Z,8
2023-04-12T18:13:14.283Z,4
2023-04-12T18:14:37.695Z,9
2023-04-12T18:16:01.112Z,9
2023-04-12T18:17:24.500Z,6
2023-04-12T18:18:47.907Z,3
2023-04-12T18:20:11.329Z,2
2023-04-12T18:21:34.731Z,1
2023-04-12T18:22:58.183Z,0
2023-04-12T18:24:20.593Z,1
2023-04-12T18:25:44.059Z,0
2023-04-12T18:27:07.507Z,0
2023-04-12T18:28:30.947Z,0
2023-04-12T18:29:54.396Z,0
2023-04-12T18:31:17.858Z,0
2023-04-12T18:32:41.293Z,0
2023-04-12T18:34:03.779Z,0
2023-04-12T18:35:26.256Z,0
2023-04-12T18:36:49.704Z,0
2023-04-12T18:38:13.147Z,0
2023-04-12T18:39:36.606Z,0
2023-04-12T18:41:00.054Z,0
2023-04-12T18:42:23.498Z,0
2023-04-12T18:43:46.943Z,0
2023-04-12T18:45:10.402Z,0
2023-04-12T18:46:33.858Z,0
2023-04-12T18:47:57.290Z,0
2023-04-12T18:49:20.737Z,0
2023-04-12T18:50:44.206Z,0
2023-04-12T18:52:07.652Z,0
2023-04-12T18:53:30.109Z,0
2023-04-12T18:54:53.563Z,0
2023-04-12T18:56:17.025Z,0
2023-04-12T18:57:40.465Z,0
2023-04-12T18:59:03.922Z,0
2023-04-12T19:00:27.370Z,0
2023-04-12T19:01:50.805Z,0
2023-04-12T19:03:14.261Z,0
2023-04-12T19:04:37.705Z,0
2023-04-12T19:06:01.168Z,0
2023-04-12T19:07:24.606Z,0
2023-04-12T19:08:48.051Z,0
2023-04-12T19:10:11.517Z,0
2023-04-12T19:11:33.979Z,0
2023-04-12T19:12:57.433Z,0
2023-04-12T19:14:20.892Z,0
2023-04-12T19:15:44.327Z,0
2023-04-12T19:17:07.780Z,0
2023-04-12T19:18:31.226Z,0
2023-04-12T19:19:54.679Z,0
2023-04-12T19:21:18.117Z,0
2023-04-12T19:22:41.568Z,0
2023-04-12T19:24:05.019Z,0
2023-04-12T19:25:28.484Z,0
2023-04-12T19:26:51.933Z,0
2023-04-12T19:28:15.379Z,0
2023-04-12T19:29:37.842Z,0
2023-04-12T19:31:01.296Z,0
2023-04-12T19:32:24.735Z,0
2023-04-12T19:33:48.185Z,0
2023-04-12T19:35:11.635Z,0
2023-04-12T19:36:35.089Z,0
2023-04-12T19:37:58.532Z,0
2023-04-12T19:39:21.982Z,0
2023-04-12T19:40:45.436Z,0
2023-04-12T19:42:08.892Z,0
2023-04-12T19:43:32.326Z,0
2023-04-12T19:44:54.802Z,0
2023-04-12T19:46:18.263Z,0
2023-04-12T19:47:41.696Z,0
2023-04-12T19:49:05.142Z,0
2023-04-12T19:50:28.604Z,0
2023-04-12T19:51:52.052Z,0
2023-04-12T19:53:15.494Z,0
2023-04-12T19:54:38.941Z,0
2023-04-12T19:56:02.402Z,0
2023-04-12T19:57:25.844Z,0
2023-04-12T19:58:49.313Z,0
2023-04-12T20:00:12.762Z,0
2023-04-12T20:01:36.198Z,0
2023-04-12T20:02:58.663Z,0
2023-04-12T20:04:22.125Z,0
2023-04-12T20:05:45.574Z,0
2023-04-12T20:07:09.008Z,0
2023-04-12T20:08:32.471Z,0
2023-04-12T20:09:55.921Z,0
2023-04-12T20:11:19.350Z,0
2023-04-12T20:12:42.808Z,0
2023-04-12T20:14:06.256Z,0
2023-04-12T20:15:29.704Z,0
2023-04-12T20:16:53.148Z,0
2023-04-12T20:18:16.613Z,0
2023-04-12T20:19:40.058Z,0
2023-04-12T20:21:02.512Z,0
2023-04-12T20:22:25.968Z,0
2023-04-12T20:23:49.422Z,0
2023-04-12T20:25:12.859Z,0
2023-04-12T20:26:36.310Z,0
2023-04-12T20:27:59.757Z,0
2023-04-12T20:29:23.230Z,0
2023-04-12T20:30:46.663Z,0
2023-04-12T20:32:10.113Z,0
2023-04-12T20:33:33.577Z,0
2023-04-12T20:34:57.019Z,0
2023-04-12T20:36:20.472Z,0
2023-04-12T20:37:43.928Z,0
2023-04-12T20:39:06.392Z,0
2023-04-12T20:40:29.845Z,0
2023-04-12T20:41:53.281Z,0
2023-04-12T20:43:16.736Z,0
2023-04-12T20:44:40.180Z,0
2023-04-12T20:46:03.640Z,0
2023-04-12T20:47:27.073Z,0
2023-04-12T20:48:50.526Z,0
2023-04-12T20:50:13.981Z,0
2023-04-12T20:51:37.437Z,0
2023-04-12T20:53:00.868Z,0
2023-04-12T20:54:24.319Z,0
2023-04-12T20:55:47.786Z,0
2023-04-12T20:57:10.249Z,0
2023-04-12T20:58:33.699Z,0
2023-04-12T20:59:57.142Z,0
2023-04-12T21:01:20.598Z,0
2023-04-12T21:02:44.047Z,0
2023-04-12T21:04:07.481Z,0
2023-04-12T21:05:30.928Z,0
2023-04-12T21:06:54.392Z,0
2023-04-12T21:08:17.840Z,0
2023-04-12T21:09:41.273Z,0
2023-04-12T21:11:04.742Z,0
2023-04-12T21:12:28.188Z,0
2023-04-12T21:13:51.629Z,0
2023-04-12T21:15:14.087Z,0
2023-04-12T21:16:37.550Z,0
2023-04-12T21:18:00.995Z,0
2023-04-12T21:19:24.452Z,0
2023-04-12T21:20:47.907Z,0
2023-04-12T21:22:11.339Z,0
2023-04-12T21:23:34.802Z,0
2023-04-12T21:24:58.246Z,0
2023-04-12T21:26:21.695Z,0
2023-04-12T21:27:45.157Z,0
2023-04-12T21:43:08.446Z,0
2023-04-12T21:58:31.751Z,0
2023-04-12T22:13:55.028Z,0
2023-04-12T22:29:17.336Z,0
2023-04-12T22:44:40.643Z,0
2023-04-12T23:00:03.942Z,0
2023-04-12T23:15:27.245Z,0
2023-04-12T23:30:50.538Z,0
2023-04-12T23:46:13.836Z,0
